Time;durP1;ratioP1;P1;durP2;ratioP2;P2;SDS_P1;SDS_P2;PMS_P1;PMS_P2;Temp;Humidity;BMP_temperature;BMP_pressure;BME280_temperature;BME280_humidity;BME280_pressure;Samples;Min_cycle;Max_cycle;Signal;HPM_P1;HPM_P2
2022/01/09 00:01:44;;;;;;;46.75;26.02;;;128.80;2252.80;;;;;;4996606;28;20125;-71
2022/01/09 00:04:10;;;;;;;49.25;26.85;;;128.70;2252.80;;;;;;4996774;28;20068;-65
2022/01/09 00:06:38;;;;;;;47.10;25.92;;;128.60;2252.80;;;;;;4996580;28;20469;-67
2022/01/09 00:09:04;;;;;;;44.78;23.85;;;128.50;2252.80;;;;;;4996092;28;20550;-68
2022/01/09 00:11:33;;;;;;;43.70;25.27;;;128.50;2252.80;;;;;;4996363;28;20035;-67
2022/01/09 00:13:58;;;;;;;47.20;25.67;;;128.50;2252.80;;;;;;4996670;28;20098;-68
2022/01/09 00:16:24;;;;;;;36.90;21.92;;;128.50;2252.80;;;;;;4996576;28;20117;-68
2022/01/09 00:18:51;;;;;;;44.88;21.80;;;;;;;;;;4996484;28;20027;-69
2022/01/09 00:21:17;;;;;;;43.50;20.75;;;;;;;;;;4996286;28;20081;-68
2022/01/09 00:23:45;;;;;;;49.90;23.17;;;;;;;;;;4996256;28;20033;-67
2022/01/09 00:26:11;;;;;;;46.97;24.50;;;;;;;;;;4996025;28;20396;-69
2022/01/09 00:28:37;;;;;;;45.13;25.98;;;;;;;;;;4996466;28;20184;-69
2022/01/09 00:31:03;;;;;;;44.70;24.05;;;;;;;;;;4996233;28;20030;-69
2022/01/09 00:33:30;;;;;;;45.22;24.63;;;;;;;;;;4996312;28;20058;-69
2022/01/09 00:35:56;;;;;;;53.40;27.13;;;;;;;;;;4996127;28;20029;-69
2022/01/09 00:38:22;;;;;;;37.47;20.45;;;;;;;;;;4996028;28;20077;-69
2022/01/09 00:40:48;;;;;;;39.72;21.67;;;;;;;;;;4995879;28;20018;-71
2022/01/09 00:43:14;;;;;;;43.25;21.38;;;;;;;;;;4978919;28;20056;-70
2022/01/09 00:45:41;;;;;;;46.20;23.75;;;;;;;;;;4976494;28;20027;-70
2022/01/09 00:48:08;;;;;;;42.70;23.48;;;;;;;;;;4976430;28;20118;-70
2022/01/09 00:50:36;;;;;;;41.47;22.30;;;128.00;2252.80;;;;;;4976482;28;20113;-69
2022/01/09 00:53:03;;;;;;;48.28;25.00;;;128.10;2252.80;;;;;;4976477;28;20066;-68
2022/01/09 00:55:28;;;;;;;44.45;23.15;;;103.30;2227.20;;;;;;4976185;28;20038;-69
2022/01/09 00:57:54;;;;;;;37.90;18.27;;;103.10;2227.20;;;;;;4976294;28;20026;-69
2022/01/09 01:00:20;;;;;;;35.78;19.98;;;;;;;;;;4976264;28;20370;-69
2022/01/09 01:02:46;;;;;;;36.55;22.23;;;;;;;;;;4976127;28;20121;-68
2022/01/09 01:05:13;;;;;;;55.60;26.42;;;;;;;;;;4976008;28;20023;-69
2022/01/09 01:07:39;;;;;;;49.25;24.08;;;128.00;2252.80;;;;;;4975867;28;20073;-68
2022/01/09 01:10:05;;;;;;;60.05;28.75;;;128.10;2252.80;;;;;;4975852;28;20027;-69
2022/01/09 01:12:33;;;;;;;48.58;24.52;;;103.30;2227.20;;;;;;4976098;28;20038;-69
2022/01/09 01:14:59;;;;;;;34.10;20.95;;;;;;;;;;4976004;28;20023;-68
2022/01/09 01:17:25;;;;;;;35.38;17.52;;;;;;;;;;4976040;28;20481;-69
2022/01/09 01:19:53;;;;;;;37.97;20.17;;;;;;;;;;4975956;28;20477;-68
2022/01/09 01:22:19;;;;;;;32.22;17.33;;;;;;;;;;4975419;28;20045;-69
2022/01/09 01:24:46;;;;;;;40.30;21.17;;;;;;;;;;4958416;28;20389;-68
2022/01/09 01:27:12;;;;;;;31.25;16.05;;;;;;;;;;4975469;28;20065;-69
2022/01/09 01:29:38;;;;;;;33.65;18.05;;;;;;;;;;4975862;28;20038;-69
2022/01/09 01:32:05;;;;;;;40.08;21.08;;;;;;;;;;4975723;28;20030;-69
2022/01/09 01:34:33;;;;;;;33.17;19.48;;;;;;;;;;4975775;28;20404;-69
2022/01/09 01:36:59;;;;;;;42.60;25.50;;;;;;;;;;4975597;28;20535;-68
2022/01/09 01:39:25;;;;;;;47.35;21.20;;;;;;;;;;4975413;28;20105;-68
2022/01/09 01:41:51;;;;;;;29.45;15.30;;;;;;;;;;4975255;28;20046;-69
2022/01/09 01:44:17;;;;;;;30.33;17.80;;;;;;;;;;4975505;28;20033;-69
2022/01/09 01:46:44;;;;;;;79.28;35.63;;;;;;;;;;4975386;28;20026;-72
2022/01/09 01:49:12;;;;;;;83.22;37.33;;;;;;;;;;4975321;28;20151;-72
2022/01/09 01:51:43;;;;;;;36.67;17.27;;;;;;;;;;4975444;28;20027;-70
2022/01/09 01:54:10;;;;;;;30.57;15.13;;;;;;;;;;4974204;28;20297;-71
2022/01/09 01:56:36;;;;;;;26.08;14.70;;;;;;;;;;4975121;28;20260;-70
2022/01/09 01:59:02;;;;;;;35.30;14.65;;;;;;;;;;4975533;28;20151;-71
2022/01/09 02:01:28;;;;;;;30.50;15.00;;;;;;;;;;4975095;28;20049;-70
2022/01/09 02:03:54;;;;;;;30.95;15.65;;;;;;;;;;4975354;28;20113;-71
2022/01/09 02:06:21;;;;;;;32.85;16.52;;;;;;;;;;4975078;28;20054;-71
2022/01/09 02:08:47;;;;;;;27.35;16.17;;;;;;;;;;4975150;28;20380;-71
2022/01/09 02:11:13;;;;;;;36.63;16.80;;;;;;;;;;4974904;28;20018;-70
2022/01/09 02:13:41;;;;;;;43.78;20.90;;;;;;;;;;4975003;28;20030;-71
2022/01/09 02:16:16;;;;;;;51.20;26.85;;;;;;;;;;4974842;28;20069;-71
2022/01/09 02:18:43;;;;;;;27.88;15.52;;;;;;;;;;4973956;28;20540;-68
2022/01/09 02:21:10;;;;;;;28.42;15.18;;;;;;;;;;4974734;28;20047;-71
2022/01/09 02:23:38;;;;;;;31.77;15.63;;;;;;;;;;4974553;28;20031;-71
2022/01/09 02:26:04;;;;;;;30.60;15.80;;;;;;;;;;4974771;28;20063;-71
2022/01/09 02:28:30;;;;;;;25.42;14.98;;;128.00;2252.80;;;;;;4974460;28;20027;-71
2022/01/09 02:30:56;;;;;;;32.75;17.95;;;128.10;2252.80;;;;;;4974684;28;20039;-71
2022/01/09 02:33:21;;;;;;;33.65;18.35;;;103.20;2227.20;;;;;;4974846;28;20492;-71
2022/01/09 02:35:51;;;;;;;33.22;17.80;;;;;;;;;;4974552;28;20034;-71
2022/01/09 02:38:18;;;;;;;37.20;18.85;;;;;;;;;;4974414;28;20338;-68
2022/01/09 02:40:44;;;;;;;42.03;18.42;;;;;;;;;;4974591;28;20034;-68
2022/01/09 02:43:10;;;;;;;35.83;20.38;;;;;;;;;;4974418;28;20030;-70
2022/01/09 02:45:36;;;;;;;45.72;24.80;;;;;;;;;;4957182;28;20023;-74
2022/01/09 02:48:04;;;;;;;38.85;20.23;;;;;;;;;;4974414;28;20027;-72
2022/01/09 02:50:38;;;;;;;46.47;22.58;;;;;;;;;;4974319;28;20117;-69
2022/01/09 02:53:16;;;;;;;37.80;20.90;;;;;;;;;;4974201;28;20145;-68
2022/01/09 02:55:42;;;;;;;38.00;16.88;;;103.20;2227.20;;;;;;4974252;28;20485;-69
2022/01/09 02:58:08;;;;;;;33.53;17.65;;;103.20;2227.20;;;;;;4973935;28;20034;-69
2022/01/09 03:00:37;;;;;;;42.83;25.73;;;103.20;2227.20;;;;;;4974138;28;20031;-68
2022/01/09 03:03:03;;;;;;;40.38;21.83;;;103.30;2227.20;;;;;;4974017;28;20031;-66
2022/01/09 03:05:30;;;;;;;61.70;29.75;;;;;;;;;;4974091;28;20229;-67
2022/01/09 03:07:56;;;;;;;76.95;39.78;;;103.30;2227.20;;;;;;4973795;28;20109;-68
2022/01/09 03:10:23;;;;;;;58.95;35.38;;;128.10;2252.80;;;;;;4973615;28;20327;-69
2022/01/09 03:12:49;;;;;;;58.72;32.45;;;;;;;;;;4973832;28;20512;-69
2022/01/09 03:15:17;;;;;;;39.10;21.05;;;128.20;2252.80;;;;;;4956549;28;20030;-69
2022/01/09 03:17:43;;;;;;;51.70;25.30;;;;;;;;;;4973841;28;20081;-66
2022/01/09 03:20:11;;;;;;;60.30;29.85;;;;;;;;;;4973770;28;20541;-68
2022/01/09 03:22:37;;;;;;;35.95;18.52;;;;;;;;;;4973633;28;20039;-69
2022/01/09 03:25:04;;;;;;;28.45;14.93;;;;;;;;;;4973752;28;20022;-68
2022/01/09 03:27:30;;;;;;;23.42;14.07;;;;;;;;;;4973612;28;20054;-69
2022/01/09 03:29:56;;;;;;;30.42;13.80;;;;;;;;;;4973474;28;20062;-68
2022/01/09 03:32:22;;;;;;;31.55;16.45;;;;;;;;;;4973858;28;20101;-67
2022/01/09 03:34:48;;;;;;;40.97;22.48;;;;;;;;;;4973916;28;20389;-69
2022/01/09 03:37:14;;;;;;;33.42;18.23;;;;;;;;;;4973798;28;20097;-68
2022/01/09 03:39:40;;;;;;;33.55;17.45;;;;;;;;;;4973734;28;20027;-70
2022/01/09 03:42:06;;;;;;;37.08;20.15;;;;;;;;;;4973756;28;20035;-69
2022/01/09 03:44:32;;;;;;;50.83;26.35;;;;;;;;;;4974065;28;20026;-69
2022/01/09 03:46:58;;;;;;;47.40;23.10;;;;;;;;;;4974125;28;20023;-68
2022/01/09 03:49:24;;;;;;;37.53;21.27;;;;;;;;;;4973785;28;20270;-68
2022/01/09 03:51:52;;;;;;;39.58;20.08;;;;;;;;;;4973670;28;20030;-68
2022/01/09 03:54:21;;;;;;;86.15;40.00;;;;;;;;;;4973915;28;20049;-68
2022/01/09 03:56:48;;;;;;;41.30;25.00;;;;;;;;;;4973747;28;20027;-67
2022/01/09 03:59:14;;;;;;;45.22;27.02;;;;;;;;;;4973851;28;20034;-68
2022/01/09 04:01:40;;;;;;;44.50;24.23;;;;;;;;;;4973598;28;20050;-67
2022/01/09 04:04:06;;;;;;;43.40;23.45;;;;;;;;;;4973836;28;20027;-68
2022/01/09 04:06:32;;;;;;;43.17;22.42;;;;;;;;;;4973621;28;20054;-69
2022/01/09 04:09:06;;;;;;;44.33;21.67;;;;;;;;;;4973710;28;20018;-70
2022/01/09 04:11:37;;;;;;;32.75;19.10;;;;;;;;;;4973601;28;20102;-70
2022/01/09 04:14:03;;;;;;;37.17;20.13;;;;;;;;;;4973578;28;20026;-70
2022/01/09 04:16:29;;;;;;;62.10;29.50;;;;;;;;;;4973590;28;20027;-69
2022/01/09 04:18:55;;;;;;;52.13;24.05;;;;;;;;;;4973364;28;20070;-70
2022/01/09 04:21:22;;;;;;;35.55;18.77;;;;;;;;;;4973246;28;20030;-71
2022/01/09 04:23:48;;;;;;;33.17;17.88;;;;;;;;;;4973464;28;20109;-70
2022/01/09 04:26:14;;;;;;;36.38;20.17;;;;;;;;;;4977213;28;20073;-70
2022/01/09 04:28:41;;;;;;;94.00;48.40;;;;;;;;;;4992525;28;20046;-71
2022/01/09 04:31:07;;;;;;;255.52;137.85;;;;;;;;;;4992755;28;20477;-69
2022/01/09 04:33:33;;;;;;;114.32;62.65;;;;;;;;;;4992835;28;20106;-70
2022/01/09 04:35:59;;;;;;;64.25;37.88;;;;;;;;;;4992647;28;20057;-70
2022/01/09 04:38:25;;;;;;;46.92;24.55;;;;;;;;;;4993081;28;20089;-68
2022/01/09 04:40:52;;;;;;;64.85;32.50;;;;;;;;;;4993104;28;20101;-69
2022/01/09 04:43:18;;;;;;;75.50;44.45;;;;;;;;;;4996457;28;20382;-69
2022/01/09 04:45:45;;;;;;;44.10;25.90;;;;;;;;;;4996282;28;20093;-69
2022/01/09 04:48:13;;;;;;;69.13;41.53;;;;;;;;;;4996108;28;20446;-69
2022/01/09 04:50:42;;;;;;;66.28;36.03;;;;;;;;;;4996171;28;20022;-70
2022/01/09 04:53:09;;;;;;;49.40;31.38;;;;;;;;;;4996317;28;20362;-70
2022/01/09 04:55:39;;;;;;;46.58;29.23;;;;;;;;;;4995791;28;20073;-70
2022/01/09 04:58:06;;;;;;;86.72;50.28;;;;;;;;;;4995969;28;20027;-70
2022/01/09 05:00:32;;;;;;;88.22;47.50;;;;;;;;;;4996009;28;20030;-70
2022/01/09 05:02:58;;;;;;;123.03;73.47;;;;;;;;;;4995828;28;20042;-70
2022/01/09 05:05:24;;;;;;;57.28;31.40;;;;;;;;;;4995772;28;20022;-70
2022/01/09 05:07:50;;;;;;;56.83;33.08;;;;;;;;;;4996037;28;20112;-71
2022/01/09 05:10:17;;;;;;;102.93;61.88;;;;;;;;;;4995777;28;20023;-70
2022/01/09 05:12:43;;;;;;;76.65;41.60;;;;;;;;;;4995951;28;20026;-68
2022/01/09 05:15:10;;;;;;;71.97;34.85;;;;;;;;;;4995859;28;20058;-70
2022/01/09 05:17:36;;;;;;;50.83;28.70;;;;;;;;;;4995888;28;20105;-70
2022/01/09 05:20:03;;;;;;;49.63;29.77;;;;;;;;;;4995457;28;20027;-70
2022/01/09 05:22:30;;;;;;;54.88;31.48;;;;;;;;;;4995467;28;20045;-70
2022/01/09 05:25:02;;;;;;;54.28;30.17;;;;;;;;;;4995272;28;20022;-70
2022/01/09 05:27:28;;;;;;;;;;;103.30;2227.20;;;;;;4995542;28;20058;-70
2022/01/09 05:29:54;;;;;;;81.25;51.63;;;128.00;2252.80;;;;;;4995335;28;19910;-69
2022/01/09 05:32:19;;;;;;;60.17;33.35;;;128.10;2252.80;;;;;;4995366;28;20057;-69
2022/01/09 05:34:45;;;;;;;60.17;37.58;;;128.00;2252.80;;;;;;4995168;28;20037;-66
2022/01/09 05:37:11;;;;;;;39.95;23.25;;;103.30;2227.20;;;;;;4995397;28;20035;-70
2022/01/09 05:39:37;;;;;;;45.35;23.15;;;128.30;2252.80;;;;;;4995040;28;20108;-70
2022/01/09 05:42:06;;;;;;;75.57;42.30;;;128.30;2252.80;;;;;;4995112;28;20053;-70
2022/01/09 05:44:32;;;;;;;157.77;106.35;;;128.50;2252.80;;;;;;4995188;28;20019;-71
2022/01/09 05:47:02;;;;;;;97.43;67.22;;;128.50;2252.80;;;;;;4995056;28;20034;-71
2022/01/09 05:49:28;;;;;;;73.68;50.53;;;128.60;2252.80;;;;;;4994857;28;20080;-70
2022/01/09 05:51:54;;;;;;;73.20;54.05;;;128.40;2252.80;;;;;;4977389;28;20030;-69
2022/01/09 05:54:20;;;;;;;72.05;43.83;;;128.50;2252.80;;;;;;4995044;28;20026;-71
2022/01/09 05:56:45;;;;;;;68.50;42.80;;;128.60;2252.80;;;;;;4995007;28;20036;-71
2022/01/09 05:59:11;;;;;;;67.32;37.75;;;128.60;2252.80;;;;;;4995085;28;20026;-69
2022/01/09 06:01:37;;;;;;;59.55;35.42;;;128.80;2252.80;;;;;;4994817;28;20387;-66
2022/01/09 06:04:05;;;;;;;43.83;28.98;;;128.70;2252.80;;;;;;4994591;28;20477;-68
2022/01/09 06:06:31;;;;;;;48.97;31.38;;;128.60;2252.80;;;;;;4994636;28;20018;-67
2022/01/09 06:08:57;;;;;;;54.63;33.50;;;128.60;2252.80;;;;;;4994626;28;20058;-68
2022/01/09 06:11:23;;;;;;;52.75;33.83;;;128.60;2252.80;;;;;;4994484;28;20460;-68
2022/01/09 06:13:48;;;;;;;57.28;34.75;;;128.50;2252.80;;;;;;4994561;28;20034;-69
2022/01/09 06:16:14;;;;;;;58.95;34.53;;;128.40;2252.80;;;;;;4994565;28;20030;-69
2022/01/09 06:18:40;;;;;;;52.65;33.10;;;128.40;2252.80;;;;;;4994533;28;20027;-68
2022/01/09 06:21:06;;;;;;;60.55;37.33;;;128.40;2252.80;;;;;;4994159;28;20483;-69
2022/01/09 06:23:31;;;;;;;62.85;35.15;;;128.30;2252.80;;;;;;4994637;28;20117;-69
2022/01/09 06:25:57;;;;;;;51.35;32.40;;;;;;;;;;4994042;28;20062;-67
2022/01/09 06:28:23;;;;;;;55.67;33.83;;;128.20;2252.80;;;;;;4993981;28;20062;-68
2022/01/09 06:30:49;;;;;;;54.63;31.42;;;128.20;2252.80;;;;;;4994302;28;20058;-70
2022/01/09 06:33:16;;;;;;;50.95;27.02;;;;;;;;;;4994233;28;20060;-70
2022/01/09 06:35:42;;;;;;;48.15;27.58;;;;;;;;;;4994049;28;20389;-69
2022/01/09 06:38:08;;;;;;;50.03;28.08;;;;;;;;;;4994169;28;20030;-69
2022/01/09 06:40:34;;;;;;;53.08;29.80;;;;;;;;;;4993842;28;20019;-68
2022/01/09 06:43:01;;;;;;;42.30;26.95;;;;;;;;;;4994039;28;20401;-68
2022/01/09 06:45:27;;;;;;;43.03;24.98;;;;;;;;;;4994087;28;20014;-69
2022/01/09 06:47:57;;;;;;;60.97;31.98;;;;;;;;;;4994023;28;20025;-71
2022/01/09 06:50:24;;;;;;;63.58;32.95;;;;;;;;;;4993791;28;20034;-71
2022/01/09 06:52:50;;;;;;;61.20;37.70;;;;;;;;;;4994176;28;20057;-69
2022/01/09 06:55:17;;;;;;;61.67;41.00;;;;;;;;;;4993871;28;20520;-70
2022/01/09 06:57:43;;;;;;;72.63;47.47;;;;;;;;;;4993676;28;20038;-70
2022/01/09 07:00:10;;;;;;;85.82;51.35;;;;;;;;;;4993801;28;20069;-68
2022/01/09 07:02:36;;;;;;;87.07;50.38;;;;;;;;;;4993578;28;20113;-67
2022/01/09 07:05:02;;;;;;;91.68;53.83;;;;;;;;;;4993117;28;20030;-67
2022/01/09 07:07:28;;;;;;;92.60;56.83;;;;;;;;;;4993712;28;20481;-66
2022/01/09 07:09:54;;;;;;;99.70;62.53;;;;;;;;;;4993951;28;20030;-68
2022/01/09 07:12:20;;;;;;;120.05;74.20;;;;;;;;;;4993841;28;20027;-67
2022/01/09 07:14:47;;;;;;;119.80;78.47;;;;;;;;;;4993591;28;20026;-65
2022/01/09 07:17:13;;;;;;;96.55;62.58;;;;;;;;;;4993486;28;20026;-73
2022/01/09 07:19:40;;;;;;;91.93;59.33;;;;;;;;;;4993510;28;20064;-71
2022/01/09 07:22:06;;;;;;;95.00;61.70;;;;;;;;;;4993355;28;20065;-72
2022/01/09 07:24:32;;;;;;;92.30;55.90;;;;;;;;;;4993552;28;20499;-72
2022/01/09 07:26:58;;;;;;;658.75;364.17;;;;;;;;;;4975543;28;20050;-71
2022/01/09 07:29:24;;;;;;;345.55;184.52;;;;;;;;;;4993618;28;20108;-71
2022/01/09 07:31:51;;;;;;;319.70;193.63;;;;;;;;;;4993482;28;20031;-72
2022/01/09 07:34:18;;;;;;;175.95;109.72;;;;;;;;;;4993512;28;20018;-72
2022/01/09 07:36:44;;;;;;;305.27;196.25;;;;;;;;;;4993212;28;20023;-73
2022/01/09 07:39:10;;;;;;;202.38;124.88;;;;;;;;;;4993574;28;20030;-73
2022/01/09 07:41:36;;;;;;;125.57;82.95;;;;;;;;;;4993349;28;20039;-72
2022/01/09 07:44:03;;;;;;;144.35;87.15;;;;;;;;;;4993733;28;20362;-73
2022/01/09 07:46:29;;;;;;;127.63;83.90;;;;;;;;;;4993514;28;20477;-73
2022/01/09 07:48:55;;;;;;;113.30;76.30;;;;;;;;;;4993473;28;20393;-73
2022/01/09 07:51:21;;;;;;;138.52;91.20;;;;;;;;;;4993136;28;20077;-73
2022/01/09 07:53:47;;;;;;;101.13;64.93;;;;;;;;;;4993319;28;20026;-74
2022/01/09 07:56:13;;;;;;;95.55;66.70;;;;;;;;;;4993204;28;20050;-72
2022/01/09 07:58:39;;;;;;;87.57;57.60;;;103.30;2227.20;;;;;;4992977;28;20034;-69
2022/01/09 08:01:05;;;;;;;168.75;100.43;;;103.30;2227.20;;;;;;4993204;28;20388;-73
2022/01/09 08:03:31;;;;;;;168.90;107.40;;;;;;;;;;4993194;28;20034;-73
2022/01/09 08:05:57;;;;;;;153.52;92.45;;;;;;;;;;4993330;28;20105;-73
2022/01/09 08:08:23;;;;;;;144.63;88.07;;;;;;;;;;4993042;28;20081;-71
2022/01/09 08:10:49;;;;;;;155.02;98.75;;;128.10;2252.80;;;;;;4992813;28;20061;-72
2022/01/09 08:13:15;;;;;;;116.80;80.18;;;128.40;2252.80;;;;;;4992880;28;20058;-72
2022/01/09 08:15:41;;;;;;;94.93;73.38;;;128.40;2252.80;;;;;;4993136;28;20022;-71
2022/01/09 08:18:07;;;;;;;85.13;58.15;;;;;;;;;;4996692;28;20548;-73
2022/01/09 08:20:33;;;;;;;88.25;58.20;;;128.30;2252.80;;;;;;4996875;28;20092;-72
2022/01/09 08:22:59;;;;;;;107.90;71.50;;;128.40;2252.80;;;;;;4978909;28;20038;-69
2022/01/09 08:25:25;;;;;;;93.22;59.42;;;;;;;;;;4996766;28;20029;-69
2022/01/09 08:27:51;;;;;;;93.15;63.55;;;;;;;;;;4996207;28;20062;-69
2022/01/09 08:30:20;;;;;;;106.15;72.00;;;;;;;;;;4996294;28;20026;-69
2022/01/09 08:32:47;;;;;;;208.55;124.35;;;;;;;;;;4996397;28;20031;-70
2022/01/09 08:35:13;;;;;;;207.27;124.90;;;;;;;;;;4996017;28;20473;-69
2022/01/09 08:37:44;;;;;;;189.82;122.93;;;;;;;;;;4978854;28;20043;-70
2022/01/09 08:40:11;;;;;;;185.43;120.03;;;;;;;;;;4996445;28;20030;-69
2022/01/09 08:42:37;;;;;;;129.30;85.32;;;;;;;;;;4978049;28;20046;-69
2022/01/09 08:45:04;;;;;;;117.57;76.78;;;;;;;;;;4996189;28;20022;-69
2022/01/09 08:47:30;;;;;;;124.35;81.22;;;;;;;;;;4996245;28;20030;-69
2022/01/09 08:49:56;;;;;;;170.63;105.15;;;;;;;;;;4995966;28;20072;-68
2022/01/09 08:52:21;;;;;;;127.07;84.53;;;154.40;2252.80;;;;;;4996003;28;20436;-69
2022/01/09 08:54:50;;;;;;;129.98;91.03;;;179.20;2252.80;;;;;;4995244;28;20022;-68
2022/01/09 08:57:16;;;;;;;133.52;96.47;;;179.40;2227.20;;;;;;4994752;28;20042;-68
2022/01/09 08:59:42;;;;;;;132.35;98.35;;;179.70;2176.00;;;;;;4995297;28;20022;-71
2022/01/09 09:02:08;;;;;;;149.10;110.90;;;;;;;;;;4995225;28;20034;-70
2022/01/09 09:04:34;;;;;;;135.23;105.82;;;204.90;2099.20;;;;;;4995283;28;20153;-67
2022/01/09 09:07:00;;;;;;;123.35;96.35;;;205.20;2073.60;;;;;;4994864;28;20069;-69
2022/01/09 09:09:26;;;;;;;142.18;92.90;;;;;;;;;;4995130;28;20021;-67
2022/01/09 09:11:52;;;;;;;121.50;88.13;;;;;;;;;;4994752;28;20023;-68
2022/01/09 09:14:20;;;;;;;145.18;87.03;;;;;;;;;;4994967;28;20101;-68
2022/01/09 09:16:46;;;;;;;89.80;63.38;;;;;;;;;;4997317;28;20434;-69
2022/01/09 09:19:12;;;;;;;94.50;60.67;;;256.80;1612.80;;;;;;4998776;28;20105;-63
2022/01/09 09:21:38;;;;;;;82.80;55.03;;;;;;;;;;4995142;28;20417;-68
2022/01/09 09:24:04;;;;;;;80.47;52.78;;;332.80;1484.80;;;;;;4994749;28;20026;-73
2022/01/09 09:26:30;;;;;;;104.43;63.20;;;;;;;;;;4993505;28;20141;-71
2022/01/09 09:28:56;;;;;;;133.77;79.65;;;;;;;;;;4994115;28;20512;-72
2022/01/09 09:31:22;;;;;;;79.95;53.45;;;;;;;;;;4994372;28;20038;-68
2022/01/09 09:33:48;;;;;;;72.57;54.95;;;307.20;1459.20;;;;;;4994424;28;20022;-69
2022/01/09 09:36:14;;;;;;;87.55;58.22;;;;;;;;;;4994328;28;20105;-70
2022/01/09 09:38:40;;;;;;;75.38;50.03;;;;;;;;;;4995031;28;20461;-69
2022/01/09 09:41:07;;;;;;;89.53;60.05;;;;;;;;;;4994539;28;20073;-68
2022/01/09 09:43:33;;;;;;;53.10;39.45;;;;;;;;;;4994381;28;20062;-67
2022/01/09 09:45:59;;;;;;;69.95;50.15;;;;;;;;;;4976402;28;20497;-70
2022/01/09 09:48:25;;;;;;;82.53;54.00;;;;;;;;;;4994207;28;20448;-69
2022/01/09 09:50:50;;;;;;;80.05;55.83;;;461.70;998.40;;;;;;4993861;28;20045;-71
2022/01/09 09:53:16;;;;;;;62.80;45.78;;;436.00;1024.00;;;;;;4994025;28;20477;-69
2022/01/09 09:55:44;;;;;;;71.65;48.38;;;;;;;;;;4994150;28;20117;-70
2022/01/09 09:58:11;;;;;;;70.75;51.40;;;486.70;947.20;;;;;;4994487;28;20481;-68
2022/01/09 10:00:37;;;;;;;95.38;68.60;;;;;;;;;;4994497;28;20109;-70
2022/01/09 10:03:03;;;;;;;63.58;48.20;;;;;;;;;;4994477;28;20030;-72
2022/01/09 10:05:37;;;;;;;71.35;51.15;;;;;;;;;;4994578;28;20393;-70
2022/01/09 10:08:06;;;;;;;77.00;56.58;;;;;;;;;;4994644;28;20030;-70
2022/01/09 10:10:33;;;;;;;65.22;50.38;;;;;;;;;;4994535;28;20101;-70
2022/01/09 10:13:13;;;;;;;55.85;40.47;;;;;;;;;;4994117;28;20104;-68
2022/01/09 10:15:44;;;;;;;55.97;42.13;;;;;;;;;;4993047;28;20072;-73
2022/01/09 10:18:10;;;;;;;50.22;36.30;;;461.50;921.60;;;;;;4994734;28;20018;-70
2022/01/09 10:20:36;;;;;;;54.10;38.20;;;;;;;;;;4995166;28;20027;-68
2022/01/09 10:23:02;;;;;;;196.48;107.05;;;;;;;;;;4994162;28;20038;-67
2022/01/09 10:25:31;;;;;;;110.63;70.60;;;;;;;;;;4994190;28;20476;-74
2022/01/09 10:28:02;;;;;;;53.28;39.30;;;;;;;;;;4993898;28;20058;-70
2022/01/09 10:30:29;;;;;;;94.07;59.77;;;;;;;;;;4993932;28;20036;-70
2022/01/09 10:32:57;;;;;;;111.53;71.65;;;538.20;844.80;;;;;;5003610;28;20084;-66
2022/01/09 10:35:23;;;;;;;40.75;31.50;;;;;;;;;;5013425;28;20483;-68
2022/01/09 10:37:51;;;;;;;58.60;40.13;;;;;;;;;;5013489;28;20021;-70
2022/01/09 10:40:21;;;;;;;26.02;21.67;;;;;;;;;;5012701;28;20025;-70
2022/01/09 10:43:01;;;;;;;40.35;31.33;;;;;;;;;;5013004;28;20057;-71
2022/01/09 10:45:28;;;;;;;36.20;28.48;;;;;;;;;;5013442;28;20511;-70
2022/01/09 10:48:01;;;;;;;27.55;23.17;;;;;;;;;;5013202;28;20121;-71
2022/01/09 10:50:31;;;;;;;38.42;31.55;;;;;;;;;;5013334;28;20041;-70
2022/01/09 10:53:17;;;;;;;65.82;47.67;;;;;;;;;;5013225;28;20025;-71
2022/01/09 10:55:44;;;;;;;38.25;30.08;;;;;;;;;;5013130;28;20040;-69
2022/01/09 10:58:36;;;;;;;68.57;48.85;;;;;;;;;;5013284;28;20437;-72
2022/01/09 11:01:23;;;;;;;48.13;36.38;;;;;;;;;;4952652;29;20391;-70
2022/01/09 11:03:52;;;;;;;57.53;41.10;;;512.80;844.80;;;;;;4952732;29;20505;-70
2022/01/09 11:06:18;;;;;;;125.32;91.00;;;;;;;;;;4952701;29;20042;-69
2022/01/09 11:08:45;;;;;;;92.03;62.50;;;;;;;;;;4952578;29;20062;-69
2022/01/09 11:11:22;;;;;;;49.00;38.92;;;537.70;844.80;;;;;;4952319;29;20035;-68
2022/01/09 11:13:49;;;;;;;48.25;35.60;;;;;;;;;;4952541;29;20110;-69
2022/01/09 11:19:11;;;;;;;40.72;29.25;;;;;;;;;;4952845;29;20042;-70
2022/01/09 11:21:41;;;;;;;53.03;38.65;;;512.10;896.00;;;;;;4952547;29;20067;-70
2022/01/09 11:24:31;;;;;;;45.70;34.22;;;487.10;921.60;;;;;;4952405;29;20429;-68
2022/01/09 11:27:12;;;;;;;44.40;31.55;;;487.00;896.00;;;;;;4935107;29;20052;-68
2022/01/09 11:29:44;;;;;;;48.17;36.53;;;;;;;;;;4907585;29;20047;-69
2022/01/09 11:32:19;;;;;;;60.55;43.80;;;486.40;947.20;;;;;;4914196;29;20400;-68
2022/01/09 11:34:50;;;;;;;53.97;38.50;;;486.40;1024.00;;;;;;4914318;29;20511;-69
2022/01/09 11:37:19;;;;;;;34.75;25.92;;;;;;;;;;4925097;29;20035;-70
2022/01/09 11:39:45;;;;;;;49.15;34.63;;;;;;;;;;4954555;29;20049;-70
2022/01/09 11:42:13;;;;;;;40.08;28.42;;;;;;;;;;4954181;29;20083;-70
2022/01/09 11:44:46;;;;;;;42.00;29.92;;;;;;;;;;4954227;29;20023;-70
2022/01/09 11:47:12;;;;;;;46.72;34.38;;;435.70;998.40;;;;;;4954367;29;20031;-69
2022/01/09 11:49:52;;;;;;;36.28;28.73;;;435.50;1024.00;;;;;;4954540;28;20489;-69
2022/01/09 11:52:19;;;;;;;60.10;43.42;;;435.20;1049.60;;;;;;4958477;29;20055;-70
2022/01/09 11:54:54;;;;;;;53.63;39.10;;;435.40;1075.20;;;;;;4958235;29;20023;-69
2022/01/09 11:57:47;;;;;;;40.50;31.50;;;435.20;1075.20;;;;;;4957947;29;20035;-69
2022/01/09 12:00:29;;;;;;;33.60;26.70;;;;;;;;;;4958157;29;20110;-70
2022/01/09 12:02:55;;;;;;;34.72;26.75;;;;;;;;;;4961281;28;20385;-69
2022/01/09 12:05:20;;;;;;;37.83;28.10;;;384.90;1126.40;;;;;;4982068;28;20029;-68
2022/01/09 12:07:48;;;;;;;46.30;33.22;;;;;;;;;;4995153;28;20030;-69
2022/01/09 12:10:23;;;;;;;39.08;29.20;;;;;;;;;;4979307;28;20399;-67
2022/01/09 12:12:49;;;;;;;62.42;42.97;;;409.60;1152.00;;;;;;4977386;28;20034;-68
2022/01/09 12:15:32;;;;;;;34.13;24.10;;;;;;;;;;4977337;28;20038;-69
2022/01/09 12:18:00;;;;;;;38.00;26.70;;;359.00;1203.20;;;;;;4976906;28;20027;-69
2022/01/09 12:20:28;;;;;;;37.38;27.05;;;;;;;;;;4977526;28;20027;-69
2022/01/09 12:23:01;;;;;;;34.90;27.25;;;;;;;;;;4977046;28;20038;-68
2022/01/09 12:25:30;;;;;;;40.13;29.48;;;;;;;;;;4977181;28;20034;-69
2022/01/09 12:28:11;;;;;;;41.33;31.95;;;333.40;1280.00;;;;;;4976889;28;20448;-69
2022/01/09 12:30:44;;;;;;;38.87;27.30;;;333.40;1280.00;;;;;;4977470;28;20059;-69
2022/01/09 12:33:14;;;;;;;29.85;23.85;;;;;;;;;;4977104;28;20073;-69
2022/01/09 12:35:45;;;;;;;39.38;27.70;;;;;;;;;;4977131;28;20077;-69
2022/01/09 12:38:15;;;;;;;55.88;36.28;;;;;;;;;;4976933;28;20023;-69
2022/01/09 12:40:41;;;;;;;64.18;42.05;;;333.40;1280.00;;;;;;4977156;28;20413;-68
2022/01/09 12:43:07;;;;;;;43.17;32.63;;;;;;;;;;4976683;28;20039;-69
2022/01/09 12:45:37;;;;;;;39.95;27.98;;;332.80;1331.20;;;;;;4976989;28;20031;-69
2022/01/09 12:48:05;;;;;;;63.67;38.10;;;332.80;1612.80;;;;;;4976588;28;20118;-65
2022/01/09 12:50:39;;;;;;;46.83;33.05;;;307.80;1331.20;;;;;;4976947;28;20444;-69
2022/01/09 12:53:14;;;;;;;36.08;24.30;;;;;;;;;;4976579;28;20018;-69
2022/01/09 12:56:16;;;;;;;41.72;28.10;;;307.60;1331.20;;;;;;4977122;28;20107;-70
2022/01/09 12:58:46;;;;;;;;;;;307.70;1331.20;;;;;;4879479;29;20053;-71
2022/01/09 13:01:12;;;;;;;47.33;33.17;;;;;;;;;;4878735;29;20397;-69
2022/01/09 13:03:40;;;;;;;144.27;69.45;;;;;;;;;;4878603;29;20160;-70
2022/01/09 13:06:08;;;;;;;78.95;47.83;;;;;;;;;;4879043;29;20032;-69
2022/01/09 13:08:40;;;;;;;130.60;67.07;;;;;;;;;;4878866;29;20492;-68
2022/01/09 13:11:07;;;;;;;58.83;37.22;;;;;;;;;;4879031;29;20061;-68
2022/01/09 13:13:34;;;;;;;67.13;43.78;;;308.00;1331.20;;;;;;4878810;29;20089;-69
2022/01/09 13:16:15;;;;;;;106.63;58.10;;;307.90;1356.80;;;;;;4878753;29;20045;-69
2022/01/09 13:18:46;;;;;;;79.13;50.78;;;;;;;;;;4878842;29;20037;-67
2022/01/09 13:21:13;;;;;;;72.82;42.75;;;;;;;;;;4878506;29;20045;-69
2022/01/09 13:23:57;;;;;;;66.32;41.60;;;308.10;1331.20;;;;;;4878610;29;20040;-68
2022/01/09 13:26:43;;;;;;;88.57;55.50;;;;;;;;;;4883439;29;20161;-68
2022/01/09 13:29:11;;;;;;;66.82;44.58;;;;;;;;;;4897139;29;20116;-68
2022/01/09 13:31:42;;;;;;;75.65;49.03;;;;;;;;;;4897243;29;20036;-68
2022/01/09 13:34:08;;;;;;;98.60;66.65;;;;;;;;;;4943424;28;20038;-68
2022/01/09 13:36:35;;;;;;;90.97;55.88;;;;;;;;;;4995167;28;20085;-69